createdAt,value
2018-03-18T00:00:42.914Z,-0.90
2018-03-18T00:03:11.121Z,-0.90
2018-03-18T00:05:38.569Z,-0.90
2018-03-18T00:08:05.994Z,-0.90
2018-03-18T00:10:34.191Z,-0.90
2018-03-18T00:13:01.662Z,-0.90
2018-03-18T00:15:29.081Z,-0.90
2018-03-18T00:17:57.399Z,-0.90
2018-03-18T00:20:24.813Z,-0.90
2018-03-18T00:22:53.004Z,-0.90
2018-03-18T00:25:21.218Z,-0.90
2018-03-18T00:27:48.659Z,-1.00
2018-03-18T00:30:16.135Z,-0.90
2018-03-18T00:32:43.557Z,-1.00
2018-03-18T00:35:10.986Z,-1.00
2018-03-18T00:37:38.413Z,-1.00
2018-03-18T00:40:05.960Z,-1.00
2018-03-18T00:42:33.409Z,-1.00
2018-03-18T00:45:00.862Z,-1.00
2018-03-18T00:47:28.283Z,-1.00
2018-03-18T00:49:56.505Z,-1.00
2018-03-18T00:52:24.051Z,-1.00
2018-03-18T00:54:51.473Z,-1.00
2018-03-18T00:57:19.688Z,-1.00
2018-03-18T00:59:47.113Z,-1.00
2018-03-18T01:02:15.368Z,-1.00
2018-03-18T01:04:42.803Z,-1.00
2018-03-18T01:07:10.227Z,-1.00
2018-03-18T01:09:37.668Z,-1.00
2018-03-18T01:12:05.097Z,-1.00
2018-03-18T01:14:33.294Z,-1.10
2018-03-18T01:17:00.776Z,-1.10
2018-03-18T01:19:28.209Z,-1.10
2018-03-18T01:21:55.632Z,-1.10
2018-03-18T01:24:23.148Z,-1.10
2018-03-18T01:26:50.582Z,-1.10
2018-03-18T01:29:18.012Z,-1.10
2018-03-18T01:31:46.218Z,-1.20
2018-03-18T01:34:13.700Z,-1.20
2018-03-18T01:36:41.133Z,-1.20
2018-03-18T01:39:08.623Z,-1.20
2018-03-18T01:41:36.171Z,-1.20
2018-03-18T01:44:03.584Z,-1.20
2018-03-18T01:46:31.791Z,-1.20
2018-03-18T01:48:59.216Z,-1.30
2018-03-18T01:51:27.408Z,-1.30
2018-03-18T01:53:54.883Z,-1.30
2018-03-18T01:56:22.303Z,-1.30
2018-03-18T01:58:50.619Z,-1.30
2018-03-18T02:01:18.178Z,-1.30
2018-03-18T02:03:45.624Z,-1.30
2018-03-18T02:06:13.196Z,-1.30
2018-03-18T02:08:40.656Z,-1.30
2018-03-18T02:11:08.107Z,-1.40
2018-03-18T02:13:35.568Z,-1.40
2018-03-18T02:16:02.997Z,-1.40
2018-03-18T02:18:31.209Z,-1.50
2018-03-18T02:20:58.757Z,-1.50
2018-03-18T02:23:26.179Z,-1.50
2018-03-18T02:25:54.391Z,-1.60
2018-03-18T02:28:21.950Z,-1.60
2018-03-18T02:30:49.420Z,-1.60
2018-03-18T02:33:16.872Z,-1.60
2018-03-18T02:35:44.315Z,-1.60
2018-03-18T02:38:11.754Z,-1.60
2018-03-18T02:40:39.244Z,-1.70
2018-03-18T02:43:06.694Z,-1.70
2018-03-18T02:45:34.177Z,-1.70
2018-03-18T02:48:01.613Z,-1.70
2018-03-18T02:50:29.040Z,-1.70
2018-03-18T02:52:57.244Z,-1.80
2018-03-18T02:55:24.702Z,-1.80
2018-03-18T02:57:52.158Z,-1.80
2018-03-18T03:00:19.621Z,-1.80
2018-03-18T03:02:47.045Z,-1.80
2018-03-18T03:05:14.553Z,-1.80
2018-03-18T03:07:41.998Z,-1.80
2018-03-18T03:10:09.433Z,-1.80
2018-03-18T03:12:36.880Z,-1.80
2018-03-18T03:15:04.454Z,-1.90
2018-03-18T03:17:31.920Z,-1.90
2018-03-18T03:19:59.377Z,-1.80
2018-03-18T03:22:26.833Z,-1.90
2018-03-18T03:24:54.296Z,-1.90
2018-03-18T03:27:21.742Z,-1.90
2018-03-18T03:29:49.197Z,-1.90
2018-03-18T03:32:16.614Z,-1.90
2018-03-18T03:34:44.838Z,-1.80
2018-03-18T03:37:12.268Z,-1.80
2018-03-18T03:39:39.753Z,-1.80
2018-03-18T03:42:07.204Z,-1.80
2018-03-18T03:44:34.672Z,-1.70
2018-03-18T03:47:02.093Z,-1.70
2018-03-18T03:49:29.572Z,-1.70
2018-03-18T03:51:56.984Z,-1.70
2018-03-18T03:54:25.172Z,-1.60
2018-03-18T03:56:53.380Z,-1.60
2018-03-18T03:59:20.821Z,-1.70
2018-03-18T04:01:48.242Z,-1.70
2018-03-18T04:04:15.677Z,-1.60
2018-03-18T04:06:43.116Z,-1.70
2018-03-18T04:09:10.555Z,-1.70
2018-03-18T04:11:37.990Z,-1.60
2018-03-18T04:14:06.185Z,-1.70
2018-03-18T04:16:33.656Z,-1.70
2018-03-18T04:19:01.119Z,-1.70
2018-03-18T04:21:28.666Z,-1.70
2018-03-18T04:23:56.072Z,-1.70
2018-03-18T04:26:23.596Z,-1.70
2018-03-18T04:28:51.144Z,-1.70
2018-03-18T04:31:18.559Z,-1.70
2018-03-18T04:33:46.757Z,-1.80
2018-03-18T04:36:14.202Z,-1.80
2018-03-18T04:38:42.404Z,-1.80
2018-03-18T04:41:09.861Z,-1.80
2018-03-18T04:43:37.332Z,-1.80
2018-03-18T04:46:04.846Z,-1.80
2018-03-18T04:48:32.318Z,-1.80
2018-03-18T04:50:59.778Z,-1.80
2018-03-18T04:53:27.330Z,-1.80
2018-03-18T04:55:54.792Z,-1.80
2018-03-18T04:58:22.229Z,-1.90
2018-03-18T05:00:49.700Z,-1.90
2018-03-18T05:03:17.155Z,-1.90
2018-03-18T05:05:44.684Z,-1.90
2018-03-18T05:08:12.137Z,-1.90
2018-03-18T05:10:39.617Z,-1.90
2018-03-18T05:13:07.153Z,-1.90
2018-03-18T05:15:34.580Z,-1.90
2018-03-18T05:18:02.076Z,-1.90
2018-03-18T05:20:30.307Z,-1.90
2018-03-18T05:22:57.745Z,-1.90
2018-03-18T05:25:25.164Z,-1.90
2018-03-18T05:27:53.376Z,-2.00
2018-03-18T05:30:20.945Z,-2.00
2018-03-18T05:32:48.354Z,-2.00
2018-03-18T05:35:15.799Z,-2.00
2018-03-18T05:37:43.237Z,-2.00
2018-03-18T05:40:10.652Z,-2.00
2018-03-18T05:42:38.104Z,-2.00
2018-03-18T05:45:05.584Z,-2.10
2018-03-18T05:47:33.012Z,-2.10
2018-03-18T05:50:00.566Z,-2.10
2018-03-18T05:52:27.992Z,-2.10
2018-03-18T05:54:55.424Z,-2.10
2018-03-18T05:57:23.650Z,-2.20
2018-03-18T05:59:51.112Z,-2.20
2018-03-18T06:02:18.546Z,-2.20
2018-03-18T06:04:45.984Z,-2.20
2018-03-18T06:07:13.416Z,-2.20
2018-03-18T06:09:40.840Z,-2.20
2018-03-18T06:12:08.385Z,-2.20
2018-03-18T06:14:35.825Z,-2.20
2018-03-18T06:17:03.307Z,-2.20
2018-03-18T06:19:30.761Z,-2.20
2018-03-18T06:21:58.197Z,-2.20
2018-03-18T06:24:25.684Z,-2.20
2018-03-18T06:26:53.206Z,-2.20
2018-03-18T06:29:21.405Z,-2.30
2018-03-18T06:31:49.696Z,-2.30
2018-03-18T06:34:17.248Z,-2.30
2018-03-18T06:36:44.700Z,-2.30
2018-03-18T06:39:12.132Z,-2.30
2018-03-18T06:41:39.573Z,-2.30
2018-03-18T06:44:07.793Z,-2.30
2018-03-18T06:46:35.253Z,-2.20
2018-03-18T06:49:02.804Z,-2.30
2018-03-18T06:51:30.273Z,-2.30
2018-03-18T06:53:57.716Z,-2.30
2018-03-18T06:56:25.192Z,-2.30
2018-03-18T06:58:52.632Z,-2.30
2018-03-18T07:01:20.099Z,-2.30
2018-03-18T07:03:47.555Z,-2.30
2018-03-18T07:06:14.987Z,-2.30
2018-03-18T07:08:42.469Z,-2.30
2018-03-18T07:11:10.028Z,-2.30
2018-03-18T07:13:37.437Z,-2.30
2018-03-18T07:16:05.660Z,-2.20
2018-03-18T07:18:33.106Z,-2.20
2018-03-18T07:21:00.577Z,-2.20
2018-03-18T07:23:28.043Z,-2.10
2018-03-18T07:25:55.493Z,-2.00
2018-03-18T07:28:22.936Z,-2.00
2018-03-18T07:30:50.370Z,-2.00
2018-03-18T07:33:17.875Z,-2.00
2018-03-18T07:35:45.322Z,-1.90
2018-03-18T07:38:12.780Z,-1.90
2018-03-18T07:40:40.231Z,-1.80
2018-03-18T07:43:07.664Z,-1.80
2018-03-18T07:45:35.153Z,-1.80
2018-03-18T07:48:02.607Z,-1.70
2018-03-18T07:50:30.065Z,-1.70
2018-03-18T07:52:58.228Z,-1.60
2018-03-18T07:55:25.703Z,-1.60
2018-03-18T07:57:53.120Z,-1.60
2018-03-18T08:00:21.332Z,-1.60
2018-03-18T08:02:48.780Z,-1.60
2018-03-18T08:05:16.248Z,-1.60
2018-03-18T08:07:43.661Z,-1.50
2018-03-18T08:10:11.172Z,-1.50
2018-03-18T08:12:38.633Z,-1.40
2018-03-18T08:15:06.077Z,-1.40
2018-03-18T08:17:33.528Z,-1.40
2018-03-18T08:20:00.956Z,-1.30
2018-03-18T08:22:29.169Z,-1.30
2018-03-18T08:24:56.636Z,-1.30
2018-03-18T08:27:24.068Z,-1.20
2018-03-18T08:29:51.500Z,-1.20
2018-03-18T08:32:19.119Z,-1.20
2018-03-18T08:34:46.528Z,-1.10
2018-03-18T08:37:14.037Z,-1.10
2018-03-18T08:39:41.472Z,-1.00
2018-03-18T08:42:08.909Z,-1.00
2018-03-18T08:44:37.123Z,-0.90
2018-03-18T08:47:04.580Z,-1.00
2018-03-18T08:49:32.013Z,-0.90
2018-03-18T08:51:59.496Z,-0.90
2018-03-18T08:54:26.944Z,-0.80
2018-03-18T08:56:54.377Z,-0.80
2018-03-18T08:59:22.581Z,-0.70
2018-03-18T09:01:50.047Z,-0.80
2018-03-18T09:04:17.598Z,-0.70
2018-03-18T09:06:45.018Z,-0.70
2018-03-18T09:09:13.232Z,-0.60
2018-03-18T09:11:40.657Z,-0.60
2018-03-18T09:14:08.868Z,-0.50
2018-03-18T09:16:36.326Z,-0.60
2018-03-18T09:19:03.776Z,-0.50
2018-03-18T09:21:31.188Z,-0.60
2018-03-18T09:23:59.406Z,-0.60
2018-03-18T09:26:26.868Z,-0.50
2018-03-18T09:28:54.302Z,-0.50
2018-03-18T09:31:21.764Z,-0.50
2018-03-18T09:33:49.285Z,-0.40
2018-03-18T09:36:16.740Z,-0.30
2018-03-18T09:38:44.184Z,-0.30
2018-03-18T09:41:11.630Z,-0.40
2018-03-18T09:43:39.062Z,-0.40
2018-03-18T09:46:06.521Z,-0.30
2018-03-18T09:48:33.953Z,-0.30
2018-03-18T09:51:02.158Z,-0.10
2018-03-18T09:53:29.611Z,-0.10
2018-03-18T09:55:57.099Z,0.00
2018-03-18T09:58:24.574Z,0.00
2018-03-18T10:00:52.075Z,0.00
2018-03-18T10:03:19.553Z,0.00
2018-03-18T10:05:47.073Z,0.10
2018-03-18T10:08:15.366Z,0.40
2018-03-18T10:10:42.795Z,0.40
2018-03-18T10:13:10.280Z,0.50
2018-03-18T10:15:37.759Z,0.80
2018-03-18T10:18:05.243Z,0.80
2018-03-18T10:20:32.805Z,0.90
2018-03-18T10:23:00.277Z,1.00
2018-03-18T10:25:27.758Z,1.10
2018-03-18T10:27:56.007Z,1.30
2018-03-18T10:30:23.524Z,1.30
2018-03-18T10:32:50.932Z,1.40
2018-03-18T10:35:19.129Z,1.00
2018-03-18T10:37:46.616Z,1.00
2018-03-18T10:40:14.167Z,0.90
2018-03-18T10:42:41.593Z,0.80
2018-03-18T10:45:09.825Z,0.70
2018-03-18T10:47:37.232Z,0.80
2018-03-18T10:50:04.666Z,0.80
2018-03-18T10:52:32.171Z,0.90
2018-03-18T10:54:59.576Z,1.10
2018-03-18T10:57:27.013Z,1.20
2018-03-18T10:59:54.465Z,1.40
2018-03-18T11:02:21.902Z,1.50
2018-03-18T11:04:49.456Z,1.70
2018-03-18T11:07:16.919Z,1.60
2018-03-18T11:09:44.378Z,1.50
2018-03-18T11:12:11.818Z,1.50
2018-03-18T11:14:39.250Z,1.60
2018-03-18T11:17:07.473Z,1.80
2018-03-18T11:19:34.922Z,1.80
2018-03-18T11:22:02.356Z,1.70
2018-03-18T11:24:29.840Z,1.60
2018-03-18T11:26:57.392Z,1.50
2018-03-18T11:29:24.857Z,1.60
2018-03-18T11:31:52.298Z,1.80
2018-03-18T11:34:23.682Z,1.90
2018-03-18T11:36:51.121Z,1.90
2018-03-18T11:39:19.480Z,2.00
2018-03-18T11:41:46.902Z,2.10
2018-03-18T11:44:15.150Z,2.40
2018-03-18T11:46:42.604Z,2.40
2018-03-18T11:49:10.048Z,2.40
2018-03-18T11:51:37.501Z,2.50
2018-03-18T11:54:04.949Z,2.70
2018-03-18T11:56:32.406Z,2.80
2018-03-18T11:58:59.824Z,2.70
2018-03-18T12:01:28.024Z,2.30
2018-03-18T12:03:55.450Z,2.30
2018-03-18T12:06:23.665Z,2.00
2018-03-18T12:08:58.013Z,2.00
2018-03-18T12:11:25.448Z,2.00
2018-03-18T12:13:52.965Z,2.20
2018-03-18T12:16:21.155Z,2.50
2018-03-18T12:18:49.360Z,2.70
2018-03-18T12:21:16.840Z,2.70
2018-03-18T12:23:44.264Z,2.70
2018-03-18T12:26:11.697Z,2.80
2018-03-18T12:28:39.897Z,2.90
2018-03-18T12:31:07.325Z,2.90
2018-03-18T12:33:35.542Z,3.10
2018-03-18T12:36:02.985Z,3.00
2018-03-18T12:38:30.456Z,3.10
2018-03-18T12:40:57.906Z,3.10
2018-03-18T12:43:30.915Z,2.90
2018-03-18T12:45:58.353Z,2.80
2018-03-18T12:48:25.903Z,2.70
2018-03-18T12:50:53.307Z,2.80
2018-03-18T12:53:22.264Z,2.60
2018-03-18T12:55:49.688Z,2.60
2018-03-18T12:58:17.105Z,2.70
2018-03-18T13:00:44.579Z,2.70
2018-03-18T13:03:11.981Z,2.70
2018-03-18T13:05:39.449Z,2.60
2018-03-18T13:08:06.892Z,2.60
2018-03-18T13:10:34.361Z,2.50
2018-03-18T13:13:01.783Z,2.50
2018-03-18T13:15:29.989Z,2.40
2018-03-18T13:17:57.404Z,2.40
2018-03-18T13:20:30.570Z,2.30
2018-03-18T13:22:57.997Z,2.30
2018-03-18T13:25:25.443Z,2.30
2018-03-18T13:27:52.853Z,2.20
2018-03-18T13:30:20.280Z,2.20
2018-03-18T13:32:47.717Z,2.20
2018-03-18T13:35:15.150Z,2.30
2018-03-18T13:37:42.583Z,2.30
2018-03-18T13:40:10.799Z,2.40
2018-03-18T13:42:38.202Z,2.40
2018-03-18T13:45:05.634Z,2.50
2018-03-18T13:47:33.053Z,2.50
2018-03-18T13:50:00.536Z,2.60
2018-03-18T13:52:27.995Z,2.90
2018-03-18T13:54:55.424Z,3.00
2018-03-18T13:57:22.843Z,2.90
2018-03-18T13:59:50.355Z,2.90
2018-03-18T14:02:17.817Z,2.80
2018-03-18T14:04:45.270Z,2.70
2018-03-18T14:07:12.693Z,2.50
2018-03-18T14:09:40.902Z,2.50
2018-03-18T14:12:08.309Z,2.50
2018-03-18T14:14:35.824Z,2.40
2018-03-18T14:17:03.250Z,2.30
2018-03-18T14:19:30.737Z,2.30
2018-03-18T14:21:58.175Z,2.30
2018-03-18T14:24:25.650Z,2.30
2018-03-18T14:26:53.102Z,2.50
2018-03-18T14:29:20.564Z,2.70
2018-03-18T14:31:48.027Z,2.90
2018-03-18T14:34:15.429Z,3.10
2018-03-18T14:36:43.658Z,3.10
2018-03-18T14:39:11.110Z,3.10
2018-03-18T14:41:38.568Z,3.00
2018-03-18T14:44:06.025Z,2.70
2018-03-18T14:46:33.489Z,2.60
2018-03-18T14:49:00.941Z,2.40
2018-03-18T14:51:28.385Z,2.40
2018-03-18T14:53:55.814Z,2.30
2018-03-18T14:56:24.023Z,2.10
2018-03-18T14:58:51.434Z,2.10
2018-03-18T15:01:19.630Z,2.00
2018-03-18T15:03:47.052Z,2.00
2018-03-18T15:06:14.488Z,2.00
2018-03-18T15:08:41.924Z,2.00
2018-03-18T15:11:09.385Z,2.00
2018-03-18T15:13:36.940Z,2.20
2018-03-18T15:16:04.355Z,2.30
2018-03-18T15:18:31.767Z,2.40
2018-03-18T15:20:59.197Z,2.40
2018-03-18T15:23:26.627Z,2.30
2018-03-18T15:25:54.841Z,2.00
2018-03-18T15:28:22.301Z,2.00
2018-03-18T15:30:49.734Z,2.00
2018-03-18T15:33:17.169Z,1.90
2018-03-18T15:35:44.593Z,2.00
2018-03-18T15:38:12.034Z,2.00
2018-03-18T15:40:39.460Z,2.10
2018-03-18T15:43:06.909Z,2.20
2018-03-18T15:45:35.110Z,2.30
2018-03-18T15:48:02.517Z,2.30
2018-03-18T15:50:30.725Z,2.30
2018-03-18T15:52:58.147Z,2.30
2018-03-18T15:55:25.572Z,2.30
2018-03-18T15:57:53.026Z,2.30
2018-03-18T16:00:20.517Z,2.40
2018-03-18T16:02:48.038Z,2.40
2018-03-18T16:05:15.496Z,2.40
2018-03-18T16:07:42.925Z,2.50
2018-03-18T16:10:10.345Z,2.40
2018-03-18T16:12:37.777Z,2.50
2018-03-18T16:15:05.211Z,2.40
2018-03-18T16:17:32.637Z,2.40
2018-03-18T16:20:00.841Z,2.20
2018-03-18T16:22:28.258Z,2.20
2018-03-18T16:24:56.485Z,2.10
2018-03-18T16:27:23.944Z,2.10
2018-03-18T16:30:15.060Z,2.00
2018-03-18T16:32:42.505Z,2.00
2018-03-18T16:35:09.929Z,1.90
2018-03-18T16:37:38.140Z,1.80
2018-03-18T16:40:06.345Z,1.80
2018-03-18T16:42:33.874Z,1.80
2018-03-18T16:45:01.297Z,1.80
2018-03-18T16:47:29.501Z,1.70
2018-03-18T16:49:57.058Z,1.70
2018-03-18T16:52:24.542Z,1.60
2018-03-18T16:54:51.998Z,1.70
2018-03-18T16:57:19.432Z,1.60
2018-03-18T16:59:46.888Z,1.60
2018-03-18T17:02:14.368Z,1.60
2018-03-18T17:04:41.904Z,1.60
2018-03-18T17:07:09.314Z,1.60
2018-03-18T17:09:36.831Z,1.50
2018-03-18T17:12:04.228Z,1.50
2018-03-18T17:14:31.741Z,1.50
2018-03-18T17:16:59.187Z,1.50
2018-03-18T17:19:26.633Z,1.40
2018-03-18T17:21:54.108Z,1.40
2018-03-18T17:24:21.668Z,1.30
2018-03-18T17:26:49.235Z,1.30
2018-03-18T17:29:16.707Z,1.20
2018-03-18T17:31:44.250Z,1.20
2018-03-18T17:34:11.694Z,1.10
2018-03-18T17:36:39.105Z,1.10
2018-03-18T17:39:06.721Z,1.00
2018-03-18T17:41:34.184Z,1.00
2018-03-18T17:44:01.611Z,0.90
2018-03-18T17:46:41.077Z,0.90
2018-03-18T17:49:20.564Z,0.90
2018-03-18T17:52:00.770Z,0.80
2018-03-18T17:54:40.253Z,0.80
2018-03-18T17:57:07.761Z,0.70
2018-03-18T17:59:35.168Z,0.70
2018-03-18T18:02:02.688Z,0.70
2018-03-18T18:04:30.136Z,0.70
2018-03-18T18:06:57.592Z,0.60
2018-03-18T18:09:25.059Z,0.60
2018-03-18T18:11:52.468Z,0.60
2018-03-18T18:14:20.738Z,0.60
2018-03-18T18:16:48.120Z,0.50
2018-03-18T18:19:16.433Z,0.50
2018-03-18T18:21:43.854Z,0.50
2018-03-18T18:24:11.388Z,0.50
2018-03-18T18:26:38.788Z,0.50
2018-03-18T18:29:06.189Z,0.50
2018-03-18T18:31:33.708Z,0.50
2018-03-18T18:34:01.195Z,0.40
2018-03-18T18:36:28.569Z,0.40
2018-03-18T18:38:56.808Z,0.30
2018-03-18T18:41:24.249Z,0.30
2018-03-18T18:43:51.694Z,0.40
2018-03-18T18:46:19.140Z,0.30
2018-03-18T18:48:46.561Z,0.30
2018-03-18T18:51:14.005Z,0.30
2018-03-18T18:53:41.438Z,0.30
2018-03-18T18:56:08.867Z,0.30
2018-03-18T18:58:36.298Z,0.30
2018-03-18T19:01:04.550Z,0.20
2018-03-18T19:03:31.987Z,0.20
2018-03-18T19:05:59.440Z,0.20
2018-03-18T19:08:26.913Z,0.20
2018-03-18T19:10:54.321Z,0.20
2018-03-18T19:13:26.468Z,0.20
2018-03-18T19:15:54.688Z,0.20
2018-03-18T19:18:22.101Z,0.10
2018-03-18T19:20:50.319Z,0.10
2018-03-18T19:23:17.728Z,0.10
2018-03-18T19:25:45.146Z,0.10
2018-03-18T19:28:12.731Z,0.10
2018-03-18T19:30:40.161Z,0.10
2018-03-18T19:33:07.580Z,0.10
2018-03-18T19:35:35.259Z,0.10
2018-03-18T19:38:02.676Z,0.10
2018-03-18T19:40:30.871Z,0.10
2018-03-18T19:42:59.275Z,0.10
2018-03-18T19:45:26.752Z,0.00
2018-03-18T19:47:54.196Z,0.00
2018-03-18T19:50:21.651Z,0.00
2018-03-18T19:52:49.132Z,0.00
2018-03-18T19:55:16.550Z,0.00
2018-03-18T19:57:43.988Z,0.00
2018-03-18T20:00:12.186Z,0.00
2018-03-18T20:02:39.606Z,0.00
2018-03-18T20:05:07.813Z,-0.10
2018-03-18T20:07:35.238Z,-0.10
2018-03-18T20:10:03.429Z,-0.10
2018-03-18T20:12:30.870Z,-0.10
2018-03-18T20:14:59.101Z,-0.10
2018-03-18T20:17:26.553Z,-0.10
2018-03-18T20:19:54.018Z,-0.10
2018-03-18T20:22:21.474Z,-0.10
2018-03-18T20:24:48.926Z,-0.10
2018-03-18T20:27:16.379Z,-0.10
2018-03-18T20:29:43.800Z,-0.10
2018-03-18T20:32:12.020Z,-0.20
2018-03-18T20:34:39.564Z,-0.20
2018-03-18T20:37:07.041Z,-0.20
2018-03-18T20:39:34.484Z,-0.20
2018-03-18T20:42:02.038Z,-0.20
2018-03-18T20:44:29.513Z,-0.20
2018-03-18T20:46:56.932Z,-0.20
2018-03-18T20:49:24.418Z,-0.20
2018-03-18T20:51:51.854Z,-0.20
2018-03-18T20:54:19.339Z,-0.30
2018-03-18T20:56:46.883Z,-0.30
2018-03-18T20:59:14.305Z,-0.30
2018-03-18T21:01:42.523Z,-0.20
2018-03-18T21:04:09.956Z,-0.30
2018-03-18T21:06:37.442Z,-0.30
2018-03-18T21:09:04.886Z,-0.30
2018-03-18T21:11:32.354Z,-0.30
2018-03-18T21:13:59.790Z,-0.30
2018-03-18T21:16:27.360Z,-0.30
2018-03-18T21:18:54.778Z,-0.30
2018-03-18T21:21:23.003Z,-0.30
2018-03-18T21:23:50.429Z,-0.40
2018-03-18T21:26:17.917Z,-0.30
2018-03-18T21:28:45.417Z,-0.30
2018-03-18T21:31:13.612Z,-0.40
2018-03-18T21:33:41.816Z,-0.40
2018-03-18T21:36:09.375Z,-0.40
2018-03-18T21:38:36.781Z,-0.40
2018-03-18T21:41:04.298Z,-0.40
2018-03-18T21:43:31.746Z,-0.40
2018-03-18T21:45:59.171Z,-0.40
2018-03-18T21:48:27.377Z,-0.50
2018-03-18T21:50:54.864Z,-0.50
2018-03-18T21:53:22.405Z,-0.50
2018-03-18T21:55:49.953Z,-0.50
2018-03-18T21:58:17.421Z,-0.50
2018-03-18T22:00:44.841Z,-0.50
2018-03-18T22:03:13.057Z,-0.50
2018-03-18T22:05:40.495Z,-0.60
2018-03-18T22:08:07.974Z,-0.60
2018-03-18T22:10:35.413Z,-0.60
2018-03-18T22:13:02.872Z,-0.60
2018-03-18T22:15:30.350Z,-0.60
2018-03-18T22:17:57.785Z,-0.60
2018-03-18T22:20:25.204Z,-0.60
2018-03-18T22:22:53.404Z,-0.60
2018-03-18T22:25:20.844Z,-0.60
2018-03-18T22:27:49.061Z,-0.70
2018-03-18T22:30:16.488Z,-0.70
2018-03-18T22:32:43.970Z,-0.70
2018-03-18T22:35:11.433Z,-0.70
2018-03-18T22:37:38.889Z,-0.70
2018-03-18T22:40:06.334Z,-0.70
2018-03-18T22:42:33.847Z,-0.70
2018-03-18T22:45:02.085Z,-0.70
2018-03-18T22:47:29.525Z,-0.70
2018-03-18T22:49:56.982Z,-0.70
2018-03-18T22:52:24.448Z,-0.70
2018-03-18T22:54:51.911Z,-0.80
2018-03-18T22:57:19.360Z,-0.80
2018-03-18T22:59:46.809Z,-0.80
2018-03-18T23:02:14.268Z,-0.80
2018-03-18T23:04:41.727Z,-0.80
2018-03-18T23:07:09.201Z,-0.90
2018-03-18T23:09:36.645Z,-0.90
2018-03-18T23:12:04.104Z,-0.90
2018-03-18T23:14:31.574Z,-0.90
2018-03-18T23:16:59.005Z,-0.90
2018-03-18T23:19:26.491Z,-1.00
2018-03-18T23:21:53.915Z,-1.00
2018-03-18T23:24:21.486Z,-1.00
2018-03-18T23:26:48.948Z,-1.00
2018-03-18T23:29:16.408Z,-1.00
2018-03-18T23:31:43.842Z,-1.10
2018-03-18T23:34:11.314Z,-1.10
2018-03-18T23:36:38.717Z,-1.10
2018-03-18T23:39:06.929Z,-1.10
2018-03-18T23:41:34.349Z,-1.10
2018-03-18T23:44:01.862Z,-1.10
2018-03-18T23:46:29.317Z,-1.20
2018-03-18T23:48:56.780Z,-1.20
2018-03-18T23:51:24.213Z,-1.20
2018-03-18T23:53:51.697Z,-1.20
2018-03-18T23:56:19.124Z,-1.20
2018-03-18T23:58:46.549Z,-1.30
